sensor_id;sensor_type;location;lat;lon;timestamp;temperature;humidity
10873;DHT22;34586;53.616;10.032;2023-08-20T00:00:29;18.50;99.90
10873;DHT22;34586;53.616;10.032;2023-08-20T00:03:02;18.50;99.90
10873;DHT22;34586;53.616;10.032;2023-08-20T00:05:29;18.50;99.90
10873;DHT22;34586;53.616;10.032;2023-08-20T00:07:55;18.40;99.90
10873;DHT22;34586;53.616;10.032;2023-08-20T00:10:20;18.40;99.90
10873;DHT22;34586;53.616;10.032;2023-08-20T00:12:46;18.40;99.90
10873;DHT22;34586;53.616;10.032;2023-08-20T00:15:11;18.30;99.90
10873;DHT22;34586;53.616;10.032;2023-08-20T00:17:38;18.30;99.90
10873;DHT22;34586;53.616;10.032;2023-08-20T00:20:05;18.30;99.90
10873;DHT22;34586;53.616;10.032;2023-08-20T00:22:36;18.20;99.90
10873;DHT22;34586;53.616;10.032;2023-08-20T00:25:02;18.20;99.90
10873;DHT22;34586;53.616;10.032;2023-08-20T00:27:33;18.20;99.90
10873;DHT22;34586;53.616;10.032;2023-08-20T00:29:59;18.10;99.90
10873;DHT22;34586;53.616;10.032;2023-08-20T00:32:24;18.10;99.90
10873;DHT22;34586;53.616;10.032;2023-08-20T00:34:50;18.10;99.90
10873;DHT22;34586;53.616;10.032;2023-08-20T00:37:15;18.00;99.90
10873;DHT22;34586;53.616;10.032;2023-08-20T00:39:41;18.00;99.90
10873;DHT22;34586;53.616;10.032;2023-08-20T00:42:07;18.00;99.90
10873;DHT22;34586;53.616;10.032;2023-08-20T00:44:33;18.00;99.90
10873;DHT22;34586;53.616;10.032;2023-08-20T00:47:04;17.90;99.90
10873;DHT22;34586;53.616;10.032;2023-08-20T00:49:31;17.90;99.90
10873;DHT22;34586;53.616;10.032;2023-08-20T00:51:58;17.90;99.90
10873;DHT22;34586;53.616;10.032;2023-08-20T00:54:24;17.80;99.90
10873;DHT22;34586;53.616;10.032;2023-08-20T00:56:50;17.80;99.90
10873;DHT22;34586;53.616;10.032;2023-08-20T00:59:16;17.70;99.90
10873;DHT22;34586;53.616;10.032;2023-08-20T01:01:42;17.70;99.90
10873;DHT22;34586;53.616;10.032;2023-08-20T01:04:08;17.70;99.90
10873;DHT22;34586;53.616;10.032;2023-08-20T01:09:23;17.70;99.90
10873;DHT22;34586;53.616;10.032;2023-08-20T01:11:59;17.60;99.90
10873;DHT22;34586;53.616;10.032;2023-08-20T01:14:25;17.60;99.90
10873;DHT22;34586;53.616;10.032;2023-08-20T01:16:51;17.70;99.90
10873;DHT22;34586;53.616;10.032;2023-08-20T01:19:19;17.60;99.90
10873;DHT22;34586;53.616;10.032;2023-08-20T01:22:05;17.60;99.90
10873;DHT22;34586;53.616;10.032;2023-08-20T01:28:14;17.50;99.90
10873;DHT22;34586;53.616;10.032;2023-08-20T01:30:41;17.50;99.90
10873;DHT22;34586;53.616;10.032;2023-08-20T01:33:08;17.40;99.90
10873;DHT22;34586;53.616;10.032;2023-08-20T01:35:34;17.40;99.90
10873;DHT22;34586;53.616;10.032;2023-08-20T01:38:00;17.40;99.90
10873;DHT22;34586;53.616;10.032;2023-08-20T01:40:25;17.40;99.90
10873;DHT22;34586;53.616;10.032;2023-08-20T01:42:51;17.30;99.90
10873;DHT22;34586;53.616;10.032;2023-08-20T01:45:16;17.30;99.90
10873;DHT22;34586;53.616;10.032;2023-08-20T01:47:43;17.20;99.90
10873;DHT22;34586;53.616;10.032;2023-08-20T01:50:09;17.20;99.90
10873;DHT22;34586;53.616;10.032;2023-08-20T01:52:35;17.20;99.90
10873;DHT22;34586;53.616;10.032;2023-08-20T01:55:01;17.20;99.90
10873;DHT22;34586;53.616;10.032;2023-08-20T01:57:26;17.10;99.90
10873;DHT22;34586;53.616;10.032;2023-08-20T01:59:52;17.10;99.90
10873;DHT22;34586;53.616;10.032;2023-08-20T02:02:18;17.10;99.90
10873;DHT22;34586;53.616;10.032;2023-08-20T02:04:43;17.00;99.90
10873;DHT22;34586;53.616;10.032;2023-08-20T02:07:09;17.00;99.90
10873;DHT22;34586;53.616;10.032;2023-08-20T02:09:34;17.00;99.90
10873;DHT22;34586;53.616;10.032;2023-08-20T02:12:00;17.00;99.90
10873;DHT22;34586;53.616;10.032;2023-08-20T02:14:25;17.00;99.90
10873;DHT22;34586;53.616;10.032;2023-08-20T02:16:53;16.90;99.90
10873;DHT22;34586;53.616;10.032;2023-08-20T02:19:19;16.90;99.90
10873;DHT22;34586;53.616;10.032;2023-08-20T02:21:44;16.80;99.90
10873;DHT22;34586;53.616;10.032;2023-08-20T02:24:10;16.80;99.90
10873;DHT22;34586;53.616;10.032;2023-08-20T02:26:35;16.80;99.90
10873;DHT22;34586;53.616;10.032;2023-08-20T02:29:01;16.80;99.90
10873;DHT22;34586;53.616;10.032;2023-08-20T02:31:27;16.70;99.90
10873;DHT22;34586;53.616;10.032;2023-08-20T02:33:53;16.70;99.90
10873;DHT22;34586;53.616;10.032;2023-08-20T02:36:19;16.70;99.90
10873;DHT22;34586;53.616;10.032;2023-08-20T02:38:45;16.70;99.90
10873;DHT22;34586;53.616;10.032;2023-08-20T02:41:11;16.60;99.90
10873;DHT22;34586;53.616;10.032;2023-08-20T02:43:37;16.60;99.90
10873;DHT22;34586;53.616;10.032;2023-08-20T02:46:03;16.60;99.90
10873;DHT22;34586;53.616;10.032;2023-08-20T02:48:29;16.60;99.90
10873;DHT22;34586;53.616;10.032;2023-08-20T02:50:55;16.50;99.90
10873;DHT22;34586;53.616;10.032;2023-08-20T02:53:21;16.50;99.90
10873;DHT22;34586;53.616;10.032;2023-08-20T02:55:47;16.50;99.90
10873;DHT22;34586;53.616;10.032;2023-08-20T02:58:13;16.50;99.90
10873;DHT22;34586;53.616;10.032;2023-08-20T03:00:39;16.50;99.90
10873;DHT22;34586;53.616;10.032;2023-08-20T03:03:05;16.40;99.90
10873;DHT22;34586;53.616;10.032;2023-08-20T03:05:33;16.40;99.90
10873;DHT22;34586;53.616;10.032;2023-08-20T03:07:58;16.30;99.90
10873;DHT22;34586;53.616;10.032;2023-08-20T03:10:24;16.30;99.90
10873;DHT22;34586;53.616;10.032;2023-08-20T03:12:50;16.30;99.90
10873;DHT22;34586;53.616;10.032;2023-08-20T03:15:15;16.30;99.90
10873;DHT22;34586;53.616;10.032;2023-08-20T03:17:41;16.30;99.90
10873;DHT22;34586;53.616;10.032;2023-08-20T03:20:07;16.30;99.90
10873;DHT22;34586;53.616;10.032;2023-08-20T03:22:33;16.20;99.90
10873;DHT22;34586;53.616;10.032;2023-08-20T03:24:58;16.20;99.90
10873;DHT22;34586;53.616;10.032;2023-08-20T03:27:24;16.20;99.90
10873;DHT22;34586;53.616;10.032;2023-08-20T03:29:51;16.10;99.90
10873;DHT22;34586;53.616;10.032;2023-08-20T03:32:17;16.10;99.90
10873;DHT22;34586;53.616;10.032;2023-08-20T03:34:43;16.10;99.90
10873;DHT22;34586;53.616;10.032;2023-08-20T03:37:08;16.10;99.90
10873;DHT22;34586;53.616;10.032;2023-08-20T03:39:34;16.00;99.90
10873;DHT22;34586;53.616;10.032;2023-08-20T03:41:59;16.10;99.90
10873;DHT22;34586;53.616;10.032;2023-08-20T03:44:25;16.10;99.90
10873;DHT22;34586;53.616;10.032;2023-08-20T03:46:51;16.10;99.90
10873;DHT22;34586;53.616;10.032;2023-08-20T03:49:17;16.00;99.90
10873;DHT22;34586;53.616;10.032;2023-08-20T03:51:42;16.00;99.90
10873;DHT22;34586;53.616;10.032;2023-08-20T03:54:08;16.00;99.90
10873;DHT22;34586;53.616;10.032;2023-08-20T03:56:34;16.00;99.90
10873;DHT22;34586;53.616;10.032;2023-08-20T03:59:00;15.90;99.90
10873;DHT22;34586;53.616;10.032;2023-08-20T04:01:25;15.90;99.90
10873;DHT22;34586;53.616;10.032;2023-08-20T04:03:51;15.90;99.90
10873;DHT22;34586;53.616;10.032;2023-08-20T04:06:16;15.90;99.90
10873;DHT22;34586;53.616;10.032;2023-08-20T04:08:42;15.90;99.90
10873;DHT22;34586;53.616;10.032;2023-08-20T04:11:08;15.90;99.90
10873;DHT22;34586;53.616;10.032;2023-08-20T04:13:34;15.80;99.90
10873;DHT22;34586;53.616;10.032;2023-08-20T04:16:00;15.80;99.90
10873;DHT22;34586;53.616;10.032;2023-08-20T04:18:25;15.80;99.90
10873;DHT22;34586;53.616;10.032;2023-08-20T04:20:51;15.80;99.90
10873;DHT22;34586;53.616;10.032;2023-08-20T04:23:18;15.80;99.90
10873;DHT22;34586;53.616;10.032;2023-08-20T04:25:44;15.80;99.90
10873;DHT22;34586;53.616;10.032;2023-08-20T04:28:10;15.80;99.90
10873;DHT22;34586;53.616;10.032;2023-08-20T04:30:36;15.80;99.90
10873;DHT22;34586;53.616;10.032;2023-08-20T04:33:02;15.80;99.90
10873;DHT22;34586;53.616;10.032;2023-08-20T04:35:28;15.80;99.90
10873;DHT22;34586;53.616;10.032;2023-08-20T04:37:53;15.80;99.90
10873;DHT22;34586;53.616;10.032;2023-08-20T04:40:19;15.80;99.90
10873;DHT22;34586;53.616;10.032;2023-08-20T04:42:45;15.80;99.90
10873;DHT22;34586;53.616;10.032;2023-08-20T04:45:10;15.90;99.90
10873;DHT22;34586;53.616;10.032;2023-08-20T04:47:37;15.90;99.90
10873;DHT22;34586;53.616;10.032;2023-08-20T04:50:03;15.90;99.90
10873;DHT22;34586;53.616;10.032;2023-08-20T04:52:28;16.00;99.90
10873;DHT22;34586;53.616;10.032;2023-08-20T04:54:54;16.10;99.90
10873;DHT22;34586;53.616;10.032;2023-08-20T04:57:19;16.20;99.90
10873;DHT22;34586;53.616;10.032;2023-08-20T04:59:45;16.30;99.90
10873;DHT22;34586;53.616;10.032;2023-08-20T05:02:11;16.40;99.90
10873;DHT22;34586;53.616;10.032;2023-08-20T05:04:38;16.50;99.90
10873;DHT22;34586;53.616;10.032;2023-08-20T05:07:04;16.60;99.90
10873;DHT22;34586;53.616;10.032;2023-08-20T05:09:30;16.70;99.90
10873;DHT22;34586;53.616;10.032;2023-08-20T05:11:55;16.80;99.90
10873;DHT22;34586;53.616;10.032;2023-08-20T05:14:21;16.80;99.90
10873;DHT22;34586;53.616;10.032;2023-08-20T05:16:46;16.90;99.90
10873;DHT22;34586;53.616;10.032;2023-08-20T05:19:12;17.00;99.90
10873;DHT22;34586;53.616;10.032;2023-08-20T05:21:37;17.10;99.90
10873;DHT22;34586;53.616;10.032;2023-08-20T05:24:04;17.10;99.90
10873;DHT22;34586;53.616;10.032;2023-08-20T05:26:29;17.20;99.90
10873;DHT22;34586;53.616;10.032;2023-08-20T05:28:55;17.30;99.90
10873;DHT22;34586;53.616;10.032;2023-08-20T05:31:21;17.30;99.90
10873;DHT22;34586;53.616;10.032;2023-08-20T05:33:46;17.40;99.90
10873;DHT22;34586;53.616;10.032;2023-08-20T05:36:12;17.50;99.90
10873;DHT22;34586;53.616;10.032;2023-08-20T05:38:37;17.60;99.90
10873;DHT22;34586;53.616;10.032;2023-08-20T05:41:03;17.70;99.90
10873;DHT22;34586;53.616;10.032;2023-08-20T05:43:29;17.80;99.90
10873;DHT22;34586;53.616;10.032;2023-08-20T05:45:54;17.80;99.90
10873;DHT22;34586;53.616;10.032;2023-08-20T05:48:20;17.80;99.90
10873;DHT22;34586;53.616;10.032;2023-08-20T05:50:45;17.90;99.90
10873;DHT22;34586;53.616;10.032;2023-08-20T05:53:11;18.00;99.90
10873;DHT22;34586;53.616;10.032;2023-08-20T05:55:37;18.00;99.90
10873;DHT22;34586;53.616;10.032;2023-08-20T05:58:03;18.10;99.90
10873;DHT22;34586;53.616;10.032;2023-08-20T06:00:29;18.20;99.90
10873;DHT22;34586;53.616;10.032;2023-08-20T06:02:54;18.30;99.90
10873;DHT22;34586;53.616;10.032;2023-08-20T06:05:20;18.30;99.90
10873;DHT22;34586;53.616;10.032;2023-08-20T06:07:45;18.40;99.90
10873;DHT22;34586;53.616;10.032;2023-08-20T06:10:11;18.50;99.90
10873;DHT22;34586;53.616;10.032;2023-08-20T06:12:37;18.50;99.90
10873;DHT22;34586;53.616;10.032;2023-08-20T06:15:03;18.60;99.90
10873;DHT22;34586;53.616;10.032;2023-08-20T06:17:29;18.70;99.90
10873;DHT22;34586;53.616;10.032;2023-08-20T06:19:54;18.70;99.90
10873;DHT22;34586;53.616;10.032;2023-08-20T06:22:20;18.70;99.90
10873;DHT22;34586;53.616;10.032;2023-08-20T06:24:46;18.70;99.90
10873;DHT22;34586;53.616;10.032;2023-08-20T06:27:11;18.70;99.90
10873;DHT22;34586;53.616;10.032;2023-08-20T06:29:37;18.80;99.90
10873;DHT22;34586;53.616;10.032;2023-08-20T06:32:03;18.80;99.90
10873;DHT22;34586;53.616;10.032;2023-08-20T06:34:28;18.80;99.90
10873;DHT22;34586;53.616;10.032;2023-08-20T06:36:54;18.80;99.90
10873;DHT22;34586;53.616;10.032;2023-08-20T06:39:20;18.80;99.90
10873;DHT22;34586;53.616;10.032;2023-08-20T06:41:45;18.70;99.90
10873;DHT22;34586;53.616;10.032;2023-08-20T06:44:11;18.60;99.90
10873;DHT22;34586;53.616;10.032;2023-08-20T06:46:37;18.70;99.90
10873;DHT22;34586;53.616;10.032;2023-08-20T06:49:02;18.60;99.90
10873;DHT22;34586;53.616;10.032;2023-08-20T06:51:28;18.60;99.90
10873;DHT22;34586;53.616;10.032;2023-08-20T06:53:54;18.60;99.90
10873;DHT22;34586;53.616;10.032;2023-08-20T06:56:23;18.50;99.90
10873;DHT22;34586;53.616;10.032;2023-08-20T06:58:48;18.60;99.90
10873;DHT22;34586;53.616;10.032;2023-08-20T07:01:14;18.60;99.90
10873;DHT22;34586;53.616;10.032;2023-08-20T07:03:40;18.70;99.90
10873;DHT22;34586;53.616;10.032;2023-08-20T07:06:06;18.70;99.90
10873;DHT22;34586;53.616;10.032;2023-08-20T07:08:36;18.80;99.90
10873;DHT22;34586;53.616;10.032;2023-08-20T07:11:02;18.80;99.90
10873;DHT22;34586;53.616;10.032;2023-08-20T07:13:28;18.80;99.90
10873;DHT22;34586;53.616;10.032;2023-08-20T07:15:54;18.90;99.90
10873;DHT22;34586;53.616;10.032;2023-08-20T07:18:19;19.10;99.90
10873;DHT22;34586;53.616;10.032;2023-08-20T07:20:45;19.20;99.90
10873;DHT22;34586;53.616;10.032;2023-08-20T07:23:11;19.40;99.90
10873;DHT22;34586;53.616;10.032;2023-08-20T07:25:41;19.50;99.90
10873;DHT22;34586;53.616;10.032;2023-08-20T07:28:08;19.60;99.90
10873;DHT22;34586;53.616;10.032;2023-08-20T07:30:34;19.70;99.90
10873;DHT22;34586;53.616;10.032;2023-08-20T07:33:00;19.70;99.90
10873;DHT22;34586;53.616;10.032;2023-08-20T07:35:26;19.90;99.90
10873;DHT22;34586;53.616;10.032;2023-08-20T07:37:52;19.90;99.90
10873;DHT22;34586;53.616;10.032;2023-08-20T07:40:18;20.00;99.90
10873;DHT22;34586;53.616;10.032;2023-08-20T07:42:44;20.20;99.90
10873;DHT22;34586;53.616;10.032;2023-08-20T07:45:10;20.10;99.90
10873;DHT22;34586;53.616;10.032;2023-08-20T07:47:36;20.10;99.90
10873;DHT22;34586;53.616;10.032;2023-08-20T07:50:02;20.10;99.90
10873;DHT22;34586;53.616;10.032;2023-08-20T07:52:28;20.00;99.90
10873;DHT22;34586;53.616;10.032;2023-08-20T07:54:53;20.00;99.90
10873;DHT22;34586;53.616;10.032;2023-08-20T07:57:19;20.00;99.90
10873;DHT22;34586;53.616;10.032;2023-08-20T07:59:45;20.00;99.90
10873;DHT22;34586;53.616;10.032;2023-08-20T08:02:10;20.00;99.90
10873;DHT22;34586;53.616;10.032;2023-08-20T08:04:36;19.90;99.90
10873;DHT22;34586;53.616;10.032;2023-08-20T08:07:02;19.90;99.90
10873;DHT22;34586;53.616;10.032;2023-08-20T08:09:29;19.90;99.90
10873;DHT22;34586;53.616;10.032;2023-08-20T08:11:55;19.90;99.90
10873;DHT22;34586;53.616;10.032;2023-08-20T08:14:21;20.00;99.90
10873;DHT22;34586;53.616;10.032;2023-08-20T08:16:47;20.00;99.90
10873;DHT22;34586;53.616;10.032;2023-08-20T08:19:13;20.10;99.90
10873;DHT22;34586;53.616;10.032;2023-08-20T08:21:39;20.20;99.90
10873;DHT22;34586;53.616;10.032;2023-08-20T08:24:05;20.20;99.90
10873;DHT22;34586;53.616;10.032;2023-08-20T08:26:32;20.20;99.90
10873;DHT22;34586;53.616;10.032;2023-08-20T08:28:58;20.30;99.90
10873;DHT22;34586;53.616;10.032;2023-08-20T08:31:24;20.20;99.90
10873;DHT22;34586;53.616;10.032;2023-08-20T08:33:49;20.30;99.90
10873;DHT22;34586;53.616;10.032;2023-08-20T08:36:15;20.30;99.90
10873;DHT22;34586;53.616;10.032;2023-08-20T08:38:42;20.40;99.90
10873;DHT22;34586;53.616;10.032;2023-08-20T08:41:12;20.50;99.90
10873;DHT22;34586;53.616;10.032;2023-08-20T08:43:39;20.60;99.90
10873;DHT22;34586;53.616;10.032;2023-08-20T08:46:15;20.50;99.90
10873;DHT22;34586;53.616;10.032;2023-08-20T08:48:42;20.60;99.90
10873;DHT22;34586;53.616;10.032;2023-08-20T08:51:09;20.60;99.90
10873;DHT22;34586;53.616;10.032;2023-08-20T08:53:35;20.60;99.90
10873;DHT22;34586;53.616;10.032;2023-08-20T08:56:01;20.70;99.90
10873;DHT22;34586;53.616;10.032;2023-08-20T08:58:28;20.70;99.90
10873;DHT22;34586;53.616;10.032;2023-08-20T09:00:53;20.80;99.90
10873;DHT22;34586;53.616;10.032;2023-08-20T09:03:19;20.80;99.90
10873;DHT22;34586;53.616;10.032;2023-08-20T09:05:49;20.90;99.90
10873;DHT22;34586;53.616;10.032;2023-08-20T09:08:31;20.90;99.90
10873;DHT22;34586;53.616;10.032;2023-08-20T09:10:58;20.90;99.90
10873;DHT22;34586;53.616;10.032;2023-08-20T09:13:25;20.90;99.90
10873;DHT22;34586;53.616;10.032;2023-08-20T09:15:52;21.00;99.90
10873;DHT22;34586;53.616;10.032;2023-08-20T09:18:18;21.00;99.90
10873;DHT22;34586;53.616;10.032;2023-08-20T09:20:44;21.00;99.90
10873;DHT22;34586;53.616;10.032;2023-08-20T09:23:13;21.10;99.90
10873;DHT22;34586;53.616;10.032;2023-08-20T09:25:39;21.10;99.90
10873;DHT22;34586;53.616;10.032;2023-08-20T09:28:05;21.20;99.90
10873;DHT22;34586;53.616;10.032;2023-08-20T09:30:31;21.30;99.90
10873;DHT22;34586;53.616;10.032;2023-08-20T09:35:30;21.40;99.90
10873;DHT22;34586;53.616;10.032;2023-08-20T09:37:59;21.50;99.90
10873;DHT22;34586;53.616;10.032;2023-08-20T09:40:26;21.50;97.20
10873;DHT22;34586;53.616;10.032;2023-08-20T09:42:52;21.50;88.10
10873;DHT22;34586;53.616;10.032;2023-08-20T09:45:20;21.60;38.30
10873;DHT22;34586;53.616;10.032;2023-08-20T09:47:48;21.60;1.00
10873;DHT22;34586;53.616;10.032;2023-08-20T09:50:17;21.70;40.80
10873;DHT22;34586;53.616;10.032;2023-08-20T09:53:17;21.70;99.90
10873;DHT22;34586;53.616;10.032;2023-08-20T09:55:44;21.90;99.90
10873;DHT22;34586;53.616;10.032;2023-08-20T09:58:11;22.00;99.90
10873;DHT22;34586;53.616;10.032;2023-08-20T10:00:38;22.00;68.00
10873;DHT22;34586;53.616;10.032;2023-08-20T10:03:04;22.20;1.00
10873;DHT22;34586;53.616;10.032;2023-08-20T10:05:29;22.30;1.00
10873;DHT22;34586;53.616;10.032;2023-08-20T10:07:58;22.30;1.00
10873;DHT22;34586;53.616;10.032;2023-08-20T10:10:24;22.40;1.00
10873;DHT22;34586;53.616;10.032;2023-08-20T10:12:51;22.40;1.00
10873;DHT22;34586;53.616;10.032;2023-08-20T10:15:17;22.40;1.00
10873;DHT22;34586;53.616;10.032;2023-08-20T10:17:44;22.50;1.00
10873;DHT22;34586;53.616;10.032;2023-08-20T10:20:14;22.60;1.00
10873;DHT22;34586;53.616;10.032;2023-08-20T10:22:45;22.60;1.00
10873;DHT22;34586;53.616;10.032;2023-08-20T10:25:21;22.50;1.00
10873;DHT22;34586;53.616;10.032;2023-08-20T10:27:47;22.50;1.00
10873;DHT22;34586;53.616;10.032;2023-08-20T10:30:26;22.60;1.00
10873;DHT22;34586;53.616;10.032;2023-08-20T10:32:57;22.70;1.00
10873;DHT22;34586;53.616;10.032;2023-08-20T10:35:25;22.70;1.00
10873;DHT22;34586;53.616;10.032;2023-08-20T10:38:05;22.70;1.00
10873;DHT22;34586;53.616;10.032;2023-08-20T10:40:57;22.80;1.00
10873;DHT22;34586;53.616;10.032;2023-08-20T10:46:17;23.00;1.00
10873;DHT22;34586;53.616;10.032;2023-08-20T10:48:47;23.10;1.00
10873;DHT22;34586;53.616;10.032;2023-08-20T10:51:19;23.20;1.00
10873;DHT22;34586;53.616;10.032;2023-08-20T10:59:28;23.70;99.90
10873;DHT22;34586;53.616;10.032;2023-08-20T11:01:58;23.80;99.90
10873;DHT22;34586;53.616;10.032;2023-08-20T11:04:29;24.00;99.90
10873;DHT22;34586;53.616;10.032;2023-08-20T11:06:58;24.20;99.90
10873;DHT22;34586;53.616;10.032;2023-08-20T11:09:26;24.40;1.00
10873;DHT22;34586;53.616;10.032;2023-08-20T11:11:53;24.60;1.00
10873;DHT22;34586;53.616;10.032;2023-08-20T11:14:19;24.60;1.00
10873;DHT22;34586;53.616;10.032;2023-08-20T11:16:46;24.60;99.90
10873;DHT22;34586;53.616;10.032;2023-08-20T11:19:13;24.50;1.00
10873;DHT22;34586;53.616;10.032;2023-08-20T11:21:40;24.50;1.00
10873;DHT22;34586;53.616;10.032;2023-08-20T11:24:07;24.60;1.00
10873;DHT22;34586;53.616;10.032;2023-08-20T11:26:33;24.80;1.00
10873;DHT22;34586;53.616;10.032;2023-08-20T11:29:09;25.00;1.00
10873;DHT22;34586;53.616;10.032;2023-08-20T11:31:36;24.90;99.90
10873;DHT22;34586;53.616;10.032;2023-08-20T11:34:02;24.80;1.00
10873;DHT22;34586;53.616;10.032;2023-08-20T11:36:29;24.90;1.00
10873;DHT22;34586;53.616;10.032;2023-08-20T11:38:55;24.90;1.00
10873;DHT22;34586;53.616;10.032;2023-08-20T11:41:21;24.80;99.90
10873;DHT22;34586;53.616;10.032;2023-08-20T11:43:48;24.70;99.90
10873;DHT22;34586;53.616;10.032;2023-08-20T11:46:15;24.70;1.00
10873;DHT22;34586;53.616;10.032;2023-08-20T11:49:04;24.70;1.00
10873;DHT22;34586;53.616;10.032;2023-08-20T11:51:47;24.90;1.00
10873;DHT22;34586;53.616;10.032;2023-08-20T11:54:14;25.20;1.00
10873;DHT22;34586;53.616;10.032;2023-08-20T11:56:47;25.40;1.00
10873;DHT22;34586;53.616;10.032;2023-08-20T11:59:13;25.40;99.90
10873;DHT22;34586;53.616;10.032;2023-08-20T12:01:39;25.50;76.00
10873;DHT22;34586;53.616;10.032;2023-08-20T12:04:09;25.60;99.90
10873;DHT22;34586;53.616;10.032;2023-08-20T12:06:35;25.70;99.90
10873;DHT22;34586;53.616;10.032;2023-08-20T12:09:03;25.80;1.00
10873;DHT22;34586;53.616;10.032;2023-08-20T12:11:49;25.70;63.60
10873;DHT22;34586;53.616;10.032;2023-08-20T12:14:16;25.80;1.00
10873;DHT22;34586;53.616;10.032;2023-08-20T12:16:41;25.80;5.50
10873;DHT22;34586;53.616;10.032;2023-08-20T12:19:07;25.70;1.00
10873;DHT22;34586;53.616;10.032;2023-08-20T12:21:34;26.00;99.90
10873;DHT22;34586;53.616;10.032;2023-08-20T12:24:00;26.30;1.00
10873;DHT22;34586;53.616;10.032;2023-08-20T12:26:26;26.30;1.00
10873;DHT22;34586;53.616;10.032;2023-08-20T12:28:51;26.30;1.00
10873;DHT22;34586;53.616;10.032;2023-08-20T12:31:17;26.10;1.00
10873;DHT22;34586;53.616;10.032;2023-08-20T12:33:42;26.90;99.90
10873;DHT22;34586;53.616;10.032;2023-08-20T12:36:08;28.10;99.90
10873;DHT22;34586;53.616;10.032;2023-08-20T12:38:34;28.80;1.00
10873;DHT22;34586;53.616;10.032;2023-08-20T12:41:00;28.60;99.90
10873;DHT22;34586;53.616;10.032;2023-08-20T12:43:26;28.20;1.00
10873;DHT22;34586;53.616;10.032;2023-08-20T12:45:52;28.00;1.00
10873;DHT22;34586;53.616;10.032;2023-08-20T12:48:18;27.60;27.80
10873;DHT22;34586;53.616;10.032;2023-08-20T12:50:43;27.40;99.90
10873;DHT22;34586;53.616;10.032;2023-08-20T12:53:09;27.70;99.90
10873;DHT22;34586;53.616;10.032;2023-08-20T12:55:34;27.60;96.50
10873;DHT22;34586;53.616;10.032;2023-08-20T12:58:00;27.20;1.00
10873;DHT22;34586;53.616;10.032;2023-08-20T13:00:26;27.10;99.90
10873;DHT22;34586;53.616;10.032;2023-08-20T13:02:53;26.70;99.90
10873;DHT22;34586;53.616;10.032;2023-08-20T13:05:21;26.50;99.90
10873;DHT22;34586;53.616;10.032;2023-08-20T13:07:47;26.40;99.90
10873;DHT22;34586;53.616;10.032;2023-08-20T13:10:13;26.60;1.00
10873;DHT22;34586;53.616;10.032;2023-08-20T13:12:41;27.00;99.90
10873;DHT22;34586;53.616;10.032;2023-08-20T13:15:08;27.50;99.90
10873;DHT22;34586;53.616;10.032;2023-08-20T13:17:36;28.10;99.90
10873;DHT22;34586;53.616;10.032;2023-08-20T13:20:02;29.00;99.90
10873;DHT22;34586;53.616;10.032;2023-08-20T13:22:28;29.50;99.90
10873;DHT22;34586;53.616;10.032;2023-08-20T13:24:54;29.90;99.90
10873;DHT22;34586;53.616;10.032;2023-08-20T13:27:19;29.90;99.90
10873;DHT22;34586;53.616;10.032;2023-08-20T13:29:45;29.90;99.90
10873;DHT22;34586;53.616;10.032;2023-08-20T13:32:11;29.80;99.90
10873;DHT22;34586;53.616;10.032;2023-08-20T13:34:36;29.70;99.90
10873;DHT22;34586;53.616;10.032;2023-08-20T13:37:02;29.60;99.90
10873;DHT22;34586;53.616;10.032;2023-08-20T13:39:27;29.70;99.90
10873;DHT22;34586;53.616;10.032;2023-08-20T13:41:53;29.40;99.90
10873;DHT22;34586;53.616;10.032;2023-08-20T13:44:20;29.30;99.90
10873;DHT22;34586;53.616;10.032;2023-08-20T13:46:45;29.20;99.90
10873;DHT22;34586;53.616;10.032;2023-08-20T13:49:11;29.10;99.90
10873;DHT22;34586;53.616;10.032;2023-08-20T13:51:37;29.20;99.90
10873;DHT22;34586;53.616;10.032;2023-08-20T13:54:02;29.50;99.90
10873;DHT22;34586;53.616;10.032;2023-08-20T13:56:28;29.70;99.90
10873;DHT22;34586;53.616;10.032;2023-08-20T13:58:54;29.90;99.90
10873;DHT22;34586;53.616;10.032;2023-08-20T14:01:20;30.20;99.90
10873;DHT22;34586;53.616;10.032;2023-08-20T14:03:46;30.40;99.90
10873;DHT22;34586;53.616;10.032;2023-08-20T14:06:11;30.30;99.90
10873;DHT22;34586;53.616;10.032;2023-08-20T14:08:37;30.00;99.90
10873;DHT22;34586;53.616;10.032;2023-08-20T14:11:02;29.80;99.90
10873;DHT22;34586;53.616;10.032;2023-08-20T14:13:28;29.70;99.90
10873;DHT22;34586;53.616;10.032;2023-08-20T14:15:54;29.50;99.90
10873;DHT22;34586;53.616;10.032;2023-08-20T14:18:19;29.40;99.90
10873;DHT22;34586;53.616;10.032;2023-08-20T14:20:46;28.90;99.90
10873;DHT22;34586;53.616;10.032;2023-08-20T14:23:11;28.60;99.90
10873;DHT22;34586;53.616;10.032;2023-08-20T14:25:37;28.80;99.90
10873;DHT22;34586;53.616;10.032;2023-08-20T14:28:06;28.50;99.90
10873;DHT22;34586;53.616;10.032;2023-08-20T14:30:32;28.40;99.90
10873;DHT22;34586;53.616;10.032;2023-08-20T14:33:01;28.40;99.90
10873;DHT22;34586;53.616;10.032;2023-08-20T14:35:26;28.30;99.90
10873;DHT22;34586;53.616;10.032;2023-08-20T14:37:53;28.00;99.90
10873;DHT22;34586;53.616;10.032;2023-08-20T14:40:19;28.00;99.90
10873;DHT22;34586;53.616;10.032;2023-08-20T14:42:45;28.00;99.90
10873;DHT22;34586;53.616;10.032;2023-08-20T14:45:10;28.10;99.90
10873;DHT22;34586;53.616;10.032;2023-08-20T14:47:36;28.00;99.90
10873;DHT22;34586;53.616;10.032;2023-08-20T14:50:02;28.00;99.90
10873;DHT22;34586;53.616;10.032;2023-08-20T14:52:27;27.70;99.90
10873;DHT22;34586;53.616;10.032;2023-08-20T14:54:53;27.40;99.90
10873;DHT22;34586;53.616;10.032;2023-08-20T14:57:18;27.10;99.90
10873;DHT22;34586;53.616;10.032;2023-08-20T14:59:44;27.20;99.90
10873;DHT22;34586;53.616;10.032;2023-08-20T15:02:10;27.20;99.90
10873;DHT22;34586;53.616;10.032;2023-08-20T15:04:35;27.10;99.90
10873;DHT22;34586;53.616;10.032;2023-08-20T15:07:01;27.00;99.90
10873;DHT22;34586;53.616;10.032;2023-08-20T15:09:26;26.90;1.00
10873;DHT22;34586;53.616;10.032;2023-08-20T15:11:52;26.70;31.70
10873;DHT22;34586;53.616;10.032;2023-08-20T15:14:18;26.50;99.90
10873;DHT22;34586;53.616;10.032;2023-08-20T15:16:44;26.30;1.00
10873;DHT22;34586;53.616;10.032;2023-08-20T15:19:10;26.40;1.00
10873;DHT22;34586;53.616;10.032;2023-08-20T15:21:36;26.40;1.00
10873;DHT22;34586;53.616;10.032;2023-08-20T15:24:01;26.30;99.90
10873;DHT22;34586;53.616;10.032;2023-08-20T15:26:28;26.30;99.90
10873;DHT22;34586;53.616;10.032;2023-08-20T15:28:54;26.30;99.90
10873;DHT22;34586;53.616;10.032;2023-08-20T15:31:20;26.20;1.00